Warrens, WI (54666)

11:28 AM CST on February 11, 2016 (GMT -0600)
Downtown Warrens | | Change Station
CLOSE
Current Station
Personal Weather Station
Location: Warrens, WI
Elevation: 1020 ft
Nearby Weather Stations

Elev 1020 ft 44.13 °N, 90.50 °W | Updated 5 seconds ago

Clear
Clear
15.3 °F
Feels Like 15 °F
N
2.0
Wind Variable Wind from West
Gusts 2.5 mph

Today
High -- | Low -- °F
--% Chance of Precip.
Yesterday
High -- | Low -- °F
Precip. -- in
Pressure 30.34 in
Visibility 10.0 miles
Clouds Clear
Windchill 15 °F
Dew Point -9 °F
Humidity 32%
Rainfall 0.00 in
Snow Depth Not available.
7:07 AM 5:25 PM
Waxing Crescent, 13% visible
METAR KCMY 111715Z AUTO 31003KT 10SM CLR M12/M19 A3034 RMK AO2 T11171187
Pressure 30.34 in
Visibility 10.0 miles
Clouds Clear
Windchill 15 °F
Dew Point -9 °F
Humidity 32%
Rainfall 0.00 in
Snow Depth Not available.
7:07 AM 5:25 PM
Waxing Crescent, 13% visible
METAR KCMY 111715Z AUTO 31003KT 10SM CLR M12/M19 A3034 RMK AO2 T11171187

10-Day Weather Forecast

Almanac

Astronomy

Feb. 11, 2016 Rise Set
Actual Time
Civil Twilight
Nautical Twilight
Astronomical Twilight
Moon
Length of Visible Light
Length of Day
Tomorrow will be .
, % of the Moon is Illuminated

Today's Extremes

State Highs State Lows

Community

WunderPhotos

Upload Photos

1,892,107 photos uploaded!

WunderBlog® & News

Nearby

Air Quality

  Air Quality AQ Index Pollutant
Not available.

Snow Depth

Station Depth Elevation

Earthquake Activity

City Distance Mag. Time & Date
Minimum magnitude displayed is 2.5.

Coastal Water Temperatures

Place Temperature

Stations

Nearby Weather Stations

Station Location Temp. Windchill Dew Point Humidity Wind Precip. Elev Updated Type
                   

Watches & Warnings

There are currently no watches in effect.